Time;durP1;ratioP1;P1;durP2;ratioP2;P2;SDS_P1;SDS_P2;PMS_P1;PMS_P2;Temp;Humidity;BMP_temperature;BMP_pressure;BME280_temperature;BME280_humidity;BME280_pressure;Samples;Min_cycle;Max_cycle;Signal;HPM_P1;HPM_P2
2023/02/01 00:00:11;;;;;;;49.50;15.60;;;;;;;-0.27;100.00;100417.97;106340;1289;60099;-80
2023/02/01 00:02:39;;;;;;;39.80;14.20;;;;;;;-0.28;100.00;100416.79;106394;1289;73860;-79
2023/02/01 00:05:06;;;;;;;41.20;15.10;;;;;;;-0.30;100.00;100413.80;106732;1285;74345;-80
2023/02/01 00:07:31;;;;;;;48.30;16.50;;;;;;;-0.35;100.00;100409.73;106423;1286;58190;-78
2023/02/01 00:09:57;;;;;;;46.00;15.70;;;;;;;-0.38;100.00;100408.73;106862;1285;58212;-78
2023/02/01 00:12:22;;;;;;;50.00;15.30;;;;;;;-0.41;100.00;100407.23;106757;1284;58137;-79
2023/02/01 00:14:48;;;;;;;48.10;15.90;;;;;;;-0.44;100.00;100402.86;106521;1285;58234;-79
2023/02/01 00:17:14;;;;;;;45.80;15.10;;;;;;;-0.49;100.00;100399.37;106963;1284;58170;-79
2023/02/01 00:19:39;;;;;;;53.80;17.30;;;;;;;-0.54;100.00;100395.91;106919;1285;62756;-79
2023/02/01 00:22:05;;;;;;;44.00;15.70;;;;;;;-0.57;100.00;100388.95;106958;1285;58284;-79
2023/02/01 00:24:30;;;;;;;50.40;16.50;;;;;;;-0.58;100.00;100388.73;106956;1284;58072;-79
2023/02/01 00:26:56;;;;;;;47.90;16.50;;;;;;;-0.58;100.00;100382.38;106492;1286;58435;-79
2023/02/01 00:29:21;;;;;;;46.60;16.00;;;;;;;-0.58;100.00;100384.23;106911;1284;58211;-79
2023/02/01 00:31:50;;;;;;;49.70;16.50;;;;;;;-0.58;100.00;100378.63;106955;1284;61088;-79
2023/02/01 00:34:16;;;;;;;52.50;16.90;;;;;;;-0.58;100.00;100381.31;106911;1285;73858;-79
2023/02/01 00:36:43;;;;;;;49.10;16.20;;;;;;;-0.59;100.00;100381.58;106940;1285;59056;-79
2023/02/01 00:39:09;;;;;;;50.60;16.90;;;;;;;-0.58;100.00;100386.56;106890;1285;58657;-79
2023/02/01 00:41:35;;;;;;;45.10;15.80;;;;;;;-0.55;100.00;100384.42;106934;1284;58843;-79
2023/02/01 00:44:01;;;;;;;54.70;16.10;;;;;;;-0.49;100.00;100387.72;106935;1285;58254;-79
2023/02/01 00:46:27;;;;;;;50.20;17.40;;;;;;;-0.45;100.00;100379.31;106745;1286;58691;-79
2023/02/01 00:48:54;;;;;;;53.70;17.10;;;;;;;-0.45;100.00;100375.59;106869;1285;58301;-79
2023/02/01 00:51:25;;;;;;;50.30;16.50;;;;;;;-0.50;100.00;100374.27;106889;1285;58386;-79
2023/02/01 00:53:51;;;;;;;50.10;16.50;;;;;;;-0.54;100.00;100373.03;106901;1284;61924;-79
2023/02/01 00:56:17;;;;;;;56.80;17.70;;;;;;;-0.56;100.00;100372.16;106512;1286;58375;-79
2023/02/01 00:58:43;;;;;;;56.70;16.90;;;;;;;-0.56;100.00;100370.08;106427;1284;58284;-79
2023/02/01 01:01:12;;;;;;;50.90;16.40;;;;;;;-0.53;100.00;100373.07;106454;1286;58367;-79
2023/02/01 01:03:43;;;;;;;57.40;16.70;;;;;;;-0.49;100.00;100373.02;106878;1285;73343;-79
2023/02/01 01:06:12;;;;;;;54.00;17.40;;;;;;;-0.44;100.00;100375.83;106890;1284;62691;-79
2023/02/01 01:08:39;;;;;;;54.00;17.10;;;;;;;-0.43;100.00;100371.48;106908;1285;60505;-79
2023/02/01 01:11:07;;;;;;;53.70;18.60;;;;;;;-0.42;100.00;100365.48;106962;1284;74544;-79
2023/02/01 01:13:33;;;;;;;58.00;18.30;;;;;;;-0.47;100.00;100364.16;106467;1286;73609;-79
2023/02/01 01:16:02;;;;;;;55.20;18.30;;;;;;;-0.52;100.00;100365.96;106754;1284;58580;-79
2023/02/01 01:18:29;;;;;;;55.00;17.90;;;;;;;-0.52;100.00;100361.64;106389;1286;61851;-80
2023/02/01 04:26:41;;;;;;;94.30;26.80;;;;;;;-2.22;100.00;100337.58;103818;1279;612673;-79
2023/02/01 04:29:09;;;;;;;91.00;24.80;;;;;;;-1.99;100.00;100338.07;103800;1285;117606;-79
2023/02/01 04:31:35;;;;;;;90.80;26.10;;;;;;;-1.95;100.00;100339.79;104154;1281;61468;-80
2023/02/01 04:34:01;;;;;;;80.50;24.00;;;;;;;-1.94;100.00;100347.16;104050;1279;60309;-80
2023/02/01 04:36:26;;;;;;;83.40;23.60;;;;;;;-1.96;100.00;100348.27;104128;1278;60411;-79
2023/02/01 04:38:52;;;;;;;77.50;23.20;;;;;;;-1.95;100.00;100352.95;104065;1279;60849;-79
2023/02/01 04:41:19;;;;;;;85.40;23.70;;;;;;;-1.94;100.00;100354.40;107434;1278;58486;-80
2023/02/01 04:43:49;;;;;;;79.70;22.80;;;;;;;-1.92;100.00;100357.01;107535;1278;58063;-80
2023/02/01 04:46:15;;;;;;;79.10;22.80;;;;;;;-1.89;100.00;100358.35;107487;1278;72279;-80
2023/02/01 04:48:41;;;;;;;77.20;22.90;;;;;;;-1.87;100.00;100357.56;107011;1279;58681;-80
2023/02/01 04:51:07;;;;;;;72.70;21.90;;;;;;;-1.86;100.00;100360.14;107455;1278;58008;-80
2023/02/01 04:53:33;;;;;;;67.00;20.30;;;;;;;-1.82;100.00;100367.89;107512;1278;58125;-80
2023/02/01 04:55:58;;;;;;;72.60;22.80;;;;;;;-1.77;100.00;100367.19;107482;1278;58142;-80
2023/02/01 04:58:24;;;;;;;70.00;22.40;;;;;;;-1.71;100.00;100369.45;107487;1278;58176;-80
2023/02/01 05:00:49;;;;;;;78.30;22.50;;;;;;;-1.66;100.00;100369.85;107075;1279;58258;-78
2023/02/01 05:03:15;;;;;;;78.70;22.20;;;;;;;-1.60;100.00;100368.05;107135;1279;69710;-78
2023/02/01 05:05:41;;;;;;;79.90;22.30;;;;;;;-1.54;100.00;100372.98;107553;1278;58143;-78
2023/02/01 05:08:06;;;;;;;73.20;21.40;;;;;;;-1.49;100.00;100378.58;107487;1278;58359;-78
2023/02/01 05:10:34;;;;;;;74.00;20.50;;;;;;;-1.44;100.00;100382.98;107453;1278;58425;-78
2023/02/01 05:15:45;;;;;;;75.40;20.70;;;;;;;-1.30;100.00;100386.44;107449;1278;61659;-78
2023/02/01 05:18:12;;;;;;;75.00;21.90;;;;;;;-1.26;100.00;100387.23;107499;1278;59762;-78
2023/02/01 05:20:37;;;;;;;69.90;22.10;;;;;;;-1.22;100.00;100392.36;107470;1278;57913;-78
2023/02/01 05:23:03;;;;;;;72.10;22.90;;;;;;;-1.16;100.00;100394.80;107481;1278;58190;-78
2023/02/01 05:25:28;;;;;;;71.70;21.80;;;;;;;-1.10;100.00;100395.86;107458;1278;58183;-78
2023/02/01 05:27:54;;;;;;;66.80;21.80;;;;;;;-1.04;100.00;100395.48;107378;1278;58119;-78
2023/02/01 05:30:19;;;;;;;71.30;21.80;;;;;;;-0.98;100.00;100396.86;107482;1278;58040;-78
2023/02/01 05:32:45;;;;;;;73.50;23.00;;;;;;;-0.91;100.00;100395.79;107448;1278;58054;-78
2023/02/01 05:35:10;;;;;;;70.50;22.00;;;;;;;-0.85;100.00;100398.36;107440;1278;58649;-78
2023/02/01 05:37:36;;;;;;;77.50;22.60;;;;;;;-0.80;100.00;100399.16;107449;1278;58090;-77
2023/02/01 05:40:01;;;;;;;86.80;23.50;;;;;;;-0.74;100.00;100404.42;107415;1278;58125;-77
2023/02/01 05:42:27;;;;;;;70.40;21.70;;;;;;;-0.68;100.00;100404.42;107496;1278;58001;-78
2023/02/01 05:44:52;;;;;;;73.90;22.10;;;;;;;-0.64;100.00;100407.19;107417;1278;58415;-78
2023/02/01 05:47:18;;;;;;;69.30;22.90;;;;;;;-0.60;100.00;100413.74;107446;1278;58695;-77
2023/02/01 05:49:43;;;;;;;69.60;23.30;;;;;;;-0.56;100.00;100408.80;107443;1278;58051;-78
2023/02/01 05:52:09;;;;;;;79.30;23.10;;;;;;;-0.50;100.00;100411.94;107462;1278;58195;-77
2023/02/01 05:54:34;;;;;;;73.90;22.40;;;;;;;-0.44;100.00;100413.81;107445;1278;58025;-77
2023/02/01 05:57:00;;;;;;;68.30;21.40;;;;;;;-0.37;100.00;100419.10;107440;1278;58131;-78
2023/02/01 05:59:25;;;;;;;71.80;22.20;;;;;;;-0.33;100.00;100421.73;107433;1278;58167;-77
2023/02/01 06:01:51;;;;;;;70.50;22.50;;;;;;;-0.30;100.00;100421.83;107423;1278;58106;-78
2023/02/01 06:04:16;;;;;;;71.50;21.60;;;;;;;-0.25;100.00;100419.29;107064;1279;58515;-78
2023/02/01 06:06:42;;;;;;;75.50;22.60;;;;;;;-0.18;100.00;100416.85;107476;1278;58121;-77
2023/02/01 06:09:07;;;;;;;69.30;22.30;;;;;;;-0.13;100.00;100414.61;107071;1279;58321;-77
2023/02/01 06:11:33;;;;;;;67.30;20.60;;;;;;;-0.10;100.00;100417.44;107254;1279;58128;-77
2023/02/01 06:13:59;;;;;;;69.00;22.20;;;;;;;-0.05;100.00;100419.98;107438;1278;58158;-77
2023/02/01 06:16:24;;;;;;;68.00;22.80;;;;;;;-0.01;100.00;100418.38;107387;1278;58085;-77
2023/02/01 06:18:50;;;;;;;64.40;21.10;;;;;;;0.02;100.00;100417.75;107446;1278;58410;-77
2023/02/01 06:21:23;;;;;;;73.50;22.20;;;;;;;0.03;100.00;100415.56;107399;1278;73710;-77
2023/02/01 06:23:49;;;;;;;;;;;;;;;0.02;100.00;100417.64;107436;1278;74307;-77
2023/02/01 06:26:14;;;;;;;55.40;19.80;;;;;;;-0.02;100.00;100417.58;107367;1278;58136;-77
2023/02/01 06:28:40;;;;;;;67.10;22.30;;;;;;;0.01;100.00;100420.40;107415;1278;58066;-77
2023/02/01 06:31:06;;;;;;;73.30;23.50;;;;;;;0.06;100.00;100418.59;107420;1278;58099;-77
2023/02/01 06:33:35;;;;;;;74.30;23.40;;;;;;;0.12;100.00;100420.55;107408;1279;58045;-77
2023/02/01 06:36:04;;;;;;;70.70;22.50;;;;;;;0.16;100.00;100416.90;107407;1279;72085;-78
2023/02/01 06:38:30;;;;;;;68.80;23.10;;;;;;;0.18;100.00;100419.14;107394;1279;72399;-77
2023/02/01 06:40:57;;;;;;;70.90;23.80;;;;;;;0.22;100.00;100421.65;107407;1279;58132;-77
2023/02/01 06:43:26;;;;;;;76.50;25.50;;;;;;;0.26;100.00;100421.88;107417;1278;59362;-77
2023/02/01 06:45:52;;;;;;;83.60;26.30;;;;;;;0.31;100.00;100420.40;107146;1279;72232;-77
2023/02/01 06:48:18;;;;;;;93.50;29.60;;;;;;;0.35;100.00;100420.16;107399;1278;58193;-78
2023/02/01 06:50:44;;;;;;;92.60;29.60;;;;;;;0.34;100.00;100424.11;107396;1278;58062;-77
2023/02/01 06:53:11;;;;;;;104.30;31.40;;;;;;;0.37;100.00;100422.01;107107;1279;58574;-77
2023/02/01 06:55:37;;;;;;;96.30;31.30;;;;;;;0.40;100.00;100424.47;107438;1278;58106;-77
2023/02/01 06:58:02;;;;;;;94.90;30.20;;;;;;;0.39;100.00;100425.62;107398;1278;58288;-78
2023/02/01 07:00:29;;;;;;;95.30;31.70;;;;;;;0.43;100.00;100422.41;107431;1279;57961;-78
2023/02/01 07:02:55;;;;;;;89.00;31.00;;;;;;;0.57;100.00;100426.18;107416;1278;58076;-78
2023/02/01 07:05:21;;;;;;;87.70;28.80;;;;;;;0.69;100.00;100425.13;107474;1278;58019;-78
2023/02/01 07:07:46;;;;;;;91.90;30.20;;;;;;;0.83;100.00;100427.35;107421;1278;72925;-78
2023/02/01 07:10:12;;;;;;;91.60;30.80;;;;;;;0.95;100.00;100425.95;106961;1278;58150;-78
2023/02/01 07:12:38;;;;;;;99.30;30.80;;;;;;;1.07;100.00;100424.89;107409;1278;58147;-79
2023/02/01 07:15:05;;;;;;;87.40;28.90;;;;;;;1.20;100.00;100423.23;107421;1279;58083;-79
2023/02/01 07:17:30;;;;;;;84.40;28.90;;;;;;;1.33;100.00;100423.48;107445;1279;58029;-79
2023/02/01 07:19:58;;;;;;;79.30;27.90;;;;;;;1.51;100.00;100425.34;107478;1279;58052;-79
2023/02/01 07:22:24;;;;;;;77.20;26.80;;;;;;;1.63;100.00;100423.77;107463;1278;58199;-79
2023/02/01 07:24:49;;;;;;;69.60;24.20;;;;;;;1.73;100.00;100424.50;107081;1280;58638;-79
2023/02/01 07:27:15;;;;;;;71.70;25.20;;;;;;;1.80;100.00;100424.30;107264;1281;58084;-79
2023/02/01 07:29:41;;;;;;;77.20;26.00;;;;;;;1.90;100.00;100427.72;107326;1280;58067;-79
2023/02/01 07:32:06;;;;;;;71.90;24.20;;;;;;;2.00;100.00;100427.09;106968;1282;58282;-80
2023/02/01 07:34:33;;;;;;;72.40;24.90;;;;;;;2.11;100.00;100424.90;107108;1280;58356;-80
2023/02/01 07:36:58;;;;;;;76.70;26.20;;;;;;;2.20;100.00;100421.64;107255;1281;58119;-80
2023/02/01 07:39:24;;;;;;;69.80;25.20;;;;;;;2.21;100.00;100422.36;107099;1281;58092;-80
2023/02/01 07:41:50;;;;;;;74.90;23.90;;;;;;;2.30;100.00;100427.50;107288;1281;58039;-80
2023/02/01 07:44:18;;;;;;;69.50;24.20;;;;;;;2.31;100.00;100426.32;107010;1282;58743;-80
2023/02/01 07:46:44;;;;;;;63.10;21.90;;;;;;;2.33;100.00;100424.70;107226;1281;60781;-80
2023/02/01 07:49:10;;;;;;;85.10;27.90;;;;;;;2.40;100.00;100424.19;107317;1281;58031;-80
2023/02/01 07:51:35;;;;;;;85.40;28.70;;;;;;;2.45;100.00;100420.98;107268;1281;58058;-80
2023/02/01 07:54:01;;;;;;;90.00;30.60;;;;;;;2.50;100.00;100422.35;106716;1281;58124;-81
2023/02/01 07:56:27;;;;;;;87.90;28.90;;;;;;;2.55;100.00;100418.70;107141;1281;58278;-81
2023/02/01 07:58:55;;;;;;;98.30;31.30;;;;;;;2.70;100.00;100420.09;107158;1282;58247;-81
2023/02/01 08:01:24;;;;;;;97.60;34.20;;;;;;;2.80;100.00;100422.55;107144;1282;73904;-81
2023/02/01 08:04:00;;;;;;;97.70;34.90;;;;;;;2.76;100.00;100424.98;107119;1282;72124;-81
2023/02/01 08:06:27;;;;;;;104.60;34.80;;;;;;;2.73;100.00;100423.64;107082;1281;73475;-81
2023/02/01 08:08:54;;;;;;;103.20;34.70;;;;;;;2.78;100.00;100424.84;106939;1281;60930;-81
2023/02/01 08:11:22;;;;;;;94.10;31.70;;;;;;;2.87;100.00;100428.69;107151;1281;58037;-81
2023/02/01 08:13:48;;;;;;;88.20;30.70;;;;;;;3.05;100.00;100424.90;107157;1281;71640;-81
2023/02/01 08:16:15;;;;;;;93.00;32.10;;;;;;;3.26;100.00;100425.61;107148;1281;58487;-80
2023/02/01 08:18:41;;;;;;;99.50;32.40;;;;;;;3.41;100.00;100422.06;106885;1284;71357;-79
2023/02/01 08:21:10;;;;;;;88.10;30.10;;;;;;;3.55;100.00;100425.45;107064;1285;58168;-80
2023/02/01 08:23:37;;;;;;;98.40;33.00;;;;;;;3.75;100.00;100427.20;107171;1281;59026;-80
2023/02/01 08:26:14;;;;;;;92.10;32.90;;;;;;;3.90;100.00;100418.33;107279;1280;73013;-80
2023/02/01 08:28:41;;;;;;;97.90;35.70;;;;;;;4.00;100.00;100423.06;107255;1281;74379;-80
2023/02/01 08:31:19;;;;;;;93.70;32.00;;;;;;;4.01;100.00;100421.49;107282;1281;71308;-80
2023/02/01 08:33:51;;;;;;;93.40;33.70;;;;;;;3.95;100.00;100423.28;107278;1281;61027;-80
2023/02/01 08:36:18;;;;;;;90.50;30.20;;;;;;;4.03;100.00;100421.31;107278;1280;59213;-80
2023/02/01 08:38:44;;;;;;;89.90;30.50;;;;;;;4.22;100.00;100417.27;107254;1281;73791;-80
2023/02/01 08:41:13;;;;;;;84.50;29.30;;;;;;;4.36;100.00;100411.56;107322;1280;58498;-80
2023/02/01 08:43:39;;;;;;;79.40;27.40;;;;;;;4.47;100.00;100408.05;107288;1281;72719;-80
2023/02/01 08:46:06;;;;;;;85.00;29.30;;;;;;;4.55;100.00;100400.53;107280;1281;58238;-80
2023/02/01 08:48:32;;;;;;;98.20;32.70;;;;;;;4.59;100.00;100396.67;107311;1281;58664;-81
2023/02/01 08:51:03;;;;;;;107.80;36.20;;;;;;;4.62;100.00;100391.58;107276;1281;58279;-80
2023/02/01 08:53:28;;;;;;;106.20;34.80;;;;;;;4.60;100.00;100392.71;107300;1281;74324;-81
2023/02/01 08:55:54;;;;;;;89.70;29.90;;;;;;;4.53;100.00;100391.72;107265;1281;59549;-81
2023/02/01 08:58:21;;;;;;;83.10;31.00;;;;;;;4.51;100.00;100391.09;107161;1281;58625;-81
2023/02/01 09:00:48;;;;;;;83.50;29.30;;;;;;;4.38;100.00;100392.25;106939;1281;58563;-81
2023/02/01 09:03:14;;;;;;;89.40;30.00;;;;;;;4.24;100.00;100384.86;107266;1280;58374;-81
2023/02/01 09:05:41;;;;;;;109.20;35.80;;;;;;;4.09;100.00;100381.24;107272;1281;58667;-81
2023/02/01 09:08:07;;;;;;;105.70;35.10;;;;;;;4.07;100.00;100378.37;107251;1281;58268;-82
2023/02/01 09:10:35;;;;;;;86.90;28.20;;;;;;;4.27;100.00;100376.05;107273;1281;58379;-81
2023/02/01 09:13:00;;;;;;;74.90;26.80;;;;;;;4.36;100.00;100375.03;107276;1280;58067;-81
2023/02/01 09:15:26;;;;;;;176.50;67.70;;;;;;;4.42;100.00;100365.14;107266;1280;58297;-81
2023/02/01 09:17:52;;;;;;;179.50;77.90;;;;;;;4.75;100.00;100364.38;107286;1280;58177;-81
2023/02/01 09:20:19;;;;;;;85.00;31.30;;;;;;;5.14;100.00;100360.73;106940;1280;59132;-81
2023/02/01 09:22:45;;;;;;;61.80;24.10;;;;;;;5.59;100.00;100361.63;107264;1281;58083;-81
2023/02/01 09:25:11;;;;;;;70.50;28.40;;;;;;;5.79;100.00;100368.13;107296;1280;58334;-81
2023/02/01 09:27:36;;;;;;;60.80;23.30;;;;;;;5.72;100.00;100365.99;107299;1281;58629;-81
2023/02/01 09:30:04;;;;;;;66.50;24.10;;;;;;;5.69;100.00;100366.09;107340;1280;58280;-81
2023/02/01 09:32:30;;;;;;;63.20;24.10;;;;;;;5.83;100.00;100369.88;107257;1281;60958;-81
2023/02/01 09:34:56;;;;;;;52.20;20.50;;;;;;;6.19;100.00;100367.41;107284;1281;58224;-80
2023/02/01 09:37:22;;;;;;;57.40;21.60;;;;;;;6.32;100.00;100368.00;107274;1281;58186;-80
2023/02/01 09:39:48;;;;;;;50.30;20.40;;;;;;;6.30;100.00;100368.02;107093;1282;58505;-79
2023/02/01 09:42:21;;;;;;;50.20;20.10;;;;;;;6.26;100.00;100368.19;106923;1281;58178;-79
2023/02/01 09:44:46;;;;;;;49.80;20.60;;;;;;;6.23;100.00;100361.00;107210;1280;62011;-79
2023/02/01 09:47:14;;;;;;;57.10;22.40;;;;;;;6.25;100.00;100354.36;107301;1281;58265;-79
2023/02/01 09:49:51;;;;;;;60.70;22.70;;;;;;;6.29;100.00;100351.07;107288;1280;74492;-79
2023/02/01 09:52:19;;;;;;;55.80;22.00;;;;;;;6.32;100.00;100353.85;107246;1281;74336;-79
2023/02/01 09:54:58;;;;;;;53.20;21.10;;;;;;;6.34;100.00;100347.50;107233;1282;72380;-79
2023/02/01 09:57:33;;;;;;;66.10;22.20;;;;;;;6.22;100.00;100348.30;107204;1280;61821;-78
2023/02/01 10:00:07;;;;;;;56.50;21.20;;;;;;;6.16;100.00;100350.33;107214;1284;59585;-78
2023/02/01 10:02:39;;;;;;;57.70;21.80;;;;;;;6.08;100.00;100348.45;107281;1281;74558;-78
2023/02/01 10:05:05;;;;;;;52.70;21.00;;;;;;;5.87;100.00;100343.71;107286;1280;74320;-78
2023/02/01 10:07:58;;;;;;;47.00;17.80;;;;;;;5.73;100.00;100338.67;107279;1280;58202;-78
2023/02/01 10:10:56;;;;;;;36.60;14.60;;;;;;;5.49;100.00;100338.15;107272;1281;62017;-78
2023/02/01 10:14:09;;;;;;;42.40;13.60;;;;;;;5.32;100.00;100335.04;106450;1288;60384;-79
2023/02/01 13:32:59;;;;;;;80.70;27.10;;;;;;;1.75;100.00;100352.81;103547;1288;613612;-81
2023/02/01 13:35:34;;;;;;;71.40;26.50;;;;;;;1.87;100.00;100352.27;103526;1288;134994;-81
2023/02/01 13:38:33;;;;;;;75.60;26.20;;;;;;;1.84;100.00;100354.31;103827;1284;61444;-81
2023/02/01 13:41:24;;;;;;;83.00;27.40;;;;;;;1.79;100.00;100357.80;103774;1285;73421;-82
2023/02/01 13:43:52;;;;;;;89.70;29.00;;;;;;;1.69;100.00;100357.05;103820;1285;74166;-79
2023/02/01 13:46:19;;;;;;;87.30;28.60;;;;;;;1.63;100.00;100363.92;103801;1284;73783;-81
2023/02/01 13:48:57;;;;;;;106.20;36.40;;;;;;;1.59;100.00;100368.10;103648;1284;60805;-82
2023/02/01 13:51:33;;;;;;;94.10;31.50;;;;;;;1.50;100.00;100368.34;104235;1286;60682;-83
2023/02/01 13:53:58;;;;;;;93.70;28.80;;;;;;;1.42;100.00;100366.92;103794;1287;70884;-80
2023/02/01 13:56:25;;;;;;;87.50;29.30;;;;;;;1.33;100.00;100367.90;103731;1287;60406;-83
2023/02/01 13:58:52;;;;;;;100.50;30.30;;;;;;;1.30;100.00;100371.71;103529;1287;60629;-81
2023/02/01 14:01:20;;;;;;;87.50;29.60;;;;;;;1.27;100.00;100371.59;103312;1290;60422;-81
2023/02/01 14:03:57;;;;;;;95.90;31.80;;;;;;;1.22;100.00;100370.31;103627;1285;61346;-81
2023/02/01 14:09:38;;;;;;;94.40;29.60;;;;;;;1.09;100.00;100374.23;102824;1295;600433;-82
2023/02/01 14:12:44;;;;;;;97.80;32.10;;;;;;;1.01;100.00;100375.36;103000;1297;60513;-82
2023/02/01 14:15:29;;;;;;;103.70;33.30;;;;;;;0.97;100.00;100378.61;102802;1292;60407;-82
2023/02/01 14:17:55;;;;;;;106.30;32.20;;;;;;;0.92;100.00;100384.37;103053;1295;73592;-82
2023/02/01 14:20:45;;;;;;;113.70;31.80;;;;;;;0.88;100.00;100386.98;102878;1292;60643;-82
2023/02/01 14:23:14;;;;;;;100.10;32.70;;;;;;;0.77;100.00;100387.15;103127;1293;223425;-83
2023/02/01 14:25:41;;;;;;;114.20;35.50;;;;;;;0.69;100.00;100386.77;102813;1297;62376;-82
2023/02/01 14:28:29;;;;;;;103.10;34.10;;;;;;;0.64;100.00;100389.56;103152;1294;60410;-82
2023/02/01 14:30:57;;;;;;;107.70;32.70;;;;;;;0.61;100.00;100389.23;103142;1292;72459;-84
2023/02/01 14:37:03;;;;;;;105.90;33.20;;;;;;;0.56;100.00;100393.77;103426;1288;599618;-83
2023/02/01 14:39:49;;;;;;;110.10;35.50;;;;;;;0.53;100.00;100394.87;103439;1284;60406;-84
2023/02/01 14:42:33;;;;;;;120.70;35.70;;;;;;;0.53;100.00;100394.02;102720;1296;60487;-83
2023/02/01 14:45:17;;;;;;;106.60;36.40;;;;;;;0.48;100.00;100394.12;102811;1293;73545;-82
2023/02/01 14:47:44;;;;;;;115.20;37.30;;;;;;;0.44;100.00;100396.47;102802;1296;73970;-82
2023/02/01 14:50:10;;;;;;;117.00;36.30;;;;;;;0.41;100.00;100398.66;102766;1291;191972;-82
2023/02/01 14:52:58;;;;;;;124.30;37.90;;;;;;;0.38;100.00;100405.83;102864;1293;60429;-82
2023/02/01 14:55:37;;;;;;;113.80;37.30;;;;;;;0.31;100.00;100412.40;102218;1301;61684;-83
2023/02/01 14:58:16;;;;;;;129.60;39.50;;;;;;;0.28;100.00;100410.27;102357;1297;72602;-83
2023/02/01 15:00:53;;;;;;;135.80;38.40;;;;;;;0.27;100.00;100415.86;102584;1297;74798;-81
2023/02/01 15:03:50;;;;;;;119.50;38.70;;;;;;;0.27;100.00;100417.49;102613;1298;72903;-82
2023/02/01 15:06:41;;;;;;;117.90;39.50;;;;;;;0.27;100.00;100429.48;102284;1299;62349;-80
2023/02/01 15:09:34;;;;;;;127.10;39.60;;;;;;;0.26;100.00;100433.13;102385;1297;60555;-82
2023/02/01 15:12:11;;;;;;;114.60;35.60;;;;;;;0.26;100.00;100436.83;102051;1305;75351;-81
2023/02/01 15:14:40;;;;;;;92.50;29.80;;;;;;;0.23;100.00;100439.48;102540;1301;73884;-81
2023/02/01 15:17:33;;;;;;;86.70;26.60;;;;;;;0.19;100.00;100441.66;102541;1297;75643;-82
2023/02/01 15:20:15;;;;;;;87.80;27.30;;;;;;;0.14;100.00;100440.20;102463;1291;60434;-82
2023/02/01 15:22:42;;;;;;;87.80;28.90;;;;;;;0.00;100.00;100441.34;102908;1294;62098;-84
2023/02/01 15:25:45;;;;;;;82.60;27.00;;;;;;;-0.03;100.00;100442.05;102894;1294;73215;-83
2023/02/01 15:28:14;;;;;;;85.60;27.30;;;;;;;-0.07;100.00;100446.31;102946;1294;74858;-83
2023/02/01 15:30:51;;;;;;;84.50;28.50;;;;;;;-0.06;100.00;100452.42;103075;1293;73363;-82
2023/02/01 15:33:19;;;;;;;93.50;28.90;;;;;;;-0.07;100.00;100453.39;103384;1288;61497;-83
2023/02/01 15:35:48;;;;;;;89.00;28.10;;;;;;;-0.10;100.00;100453.82;103699;1283;60588;-83
2023/02/01 15:38:28;;;;;;;83.30;28.40;;;;;;;-0.18;100.00;100452.34;103711;1285;74407;-82
2023/02/01 15:41:17;;;;;;;96.10;29.40;;;;;;;-0.21;100.00;100452.85;103575;1283;74827;-81
2023/02/01 15:43:42;;;;;;;91.40;28.80;;;;;;;-0.20;100.00;100456.35;103067;1289;72733;-82
2023/02/01 15:46:11;;;;;;;90.70;29.50;;;;;;;-0.22;100.00;100457.11;103513;1285;60424;-82
2023/02/01 15:48:43;;;;;;;96.40;30.00;;;;;;;-0.24;100.00;100458.35;103474;1283;60550;-81
2023/02/01 15:51:20;;;;;;;98.70;32.40;;;;;;;-0.24;100.00;100454.86;103485;1283;73373;-81
2023/02/01 15:53:54;;;;;;;93.00;30.20;;;;;;;-0.26;100.00;100455.45;103425;1288;74866;-81
2023/02/01 15:56:35;;;;;;;85.20;27.80;;;;;;;-0.26;100.00;100454.03;103449;1283;73971;-81
2023/02/01 15:59:05;;;;;;;95.50;29.90;;;;;;;-0.25;100.00;100454.54;103621;1283;61354;-81
2023/02/01 16:01:37;;;;;;;107.20;31.00;;;;;;;-0.22;100.00;100453.95;103649;1285;62241;-82
2023/02/01 16:04:11;;;;;;;94.60;28.60;;;;;;;-0.24;100.00;100456.22;103562;1283;72836;-81
2023/02/01 16:06:38;;;;;;;111.50;34.10;;;;;;;-0.24;100.00;100458.30;103598;1286;73440;-81
2023/02/01 16:09:13;;;;;;;116.00;35.40;;;;;;;-0.21;100.00;100455.38;103590;1286;73590;-81
2023/02/01 16:11:47;;;;;;;113.80;32.80;;;;;;;-0.22;100.00;100458.30;103154;1286;60472;-81
2023/02/01 16:14:13;;;;;;;111.80;30.50;;;;;;;-0.22;100.00;100454.19;103549;1285;60366;-81
2023/02/01 16:16:38;;;;;;;112.70;34.10;;;;;;;-0.20;100.00;100459.13;107050;1283;58153;-82
2023/02/01 16:19:04;;;;;;;102.90;32.70;;;;;;;-0.18;100.00;100459.02;107031;1283;58263;-80
2023/02/01 16:21:29;;;;;;;111.70;37.20;;;;;;;-0.13;100.00;100459.88;106989;1283;58254;-80
2023/02/01 16:23:55;;;;;;;115.10;34.10;;;;;;;-0.09;100.00;100457.04;107028;1283;58218;-79
2023/02/01 16:26:20;;;;;;;90.60;29.60;;;;;;;-0.08;100.00;100457.71;107032;1283;58108;-80
2023/02/01 16:28:47;;;;;;;98.40;30.80;;;;;;;-0.07;100.00;100459.67;107030;1283;58373;-80
2023/02/01 16:31:19;;;;;;;101.70;30.40;;;;;;;-0.03;100.00;100458.67;106550;1283;58156;-80
2023/02/01 16:33:50;;;;;;;97.50;30.80;;;;;;;0.01;100.00;100458.17;107005;1283;60991;-80
2023/02/01 16:36:17;;;;;;;104.00;33.10;;;;;;;0.04;100.00;100458.60;107024;1283;59101;-80
2023/02/01 16:38:43;;;;;;;105.50;30.30;;;;;;;0.06;100.00;100462.96;106965;1283;57901;-79
2023/02/01 16:41:17;;;;;;;106.10;30.70;;;;;;;0.06;100.00;100458.45;106749;1283;58196;-80
2023/02/01 16:43:43;;;;;;;95.60;29.30;;;;;;;0.06;100.00;100460.27;107008;1283;73508;-81
2023/02/01 16:46:15;;;;;;;105.50;32.60;;;;;;;0.06;100.00;100458.42;107011;1283;58052;-80
2023/02/01 16:48:45;;;;;;;106.00;32.60;;;;;;;0.07;100.00;100454.15;106998;1283;61182;-80
2023/02/01 16:51:14;;;;;;;109.70;34.30;;;;;;;0.10;100.00;100452.04;107022;1283;73621;-79
2023/02/01 16:53:40;;;;;;;91.90;28.20;;;;;;;0.12;100.00;100446.42;107002;1283;73274;-80
2023/02/01 16:56:18;;;;;;;107.60;31.90;;;;;;;0.16;100.00;100449.63;107011;1283;58115;-81
2023/02/01 16:58:44;;;;;;;104.80;28.70;;;;;;;0.18;100.00;100443.70;106680;1283;60869;-80
2023/02/01 17:01:12;;;;;;;107.00;30.50;;;;;;;0.13;100.00;100441.90;107012;1283;58126;-81
2023/02/01 17:03:38;;;;;;;111.40;30.50;;;;;;;0.09;100.00;100441.36;106718;1283;73217;-79
2023/02/01 17:06:07;;;;;;;101.60;31.30;;;;;;;0.05;100.00;100439.17;107002;1283;74233;-81
2023/02/01 17:08:36;;;;;;;96.00;28.50;;;;;;;0.02;100.00;100439.03;106571;1283;73701;-80
2023/02/01 17:11:04;;;;;;;90.80;27.30;;;;;;;0.02;100.00;100435.16;107026;1283;61018;-81
2023/02/01 17:13:30;;;;;;;109.90;29.30;;;;;;;-0.02;100.00;100439.13;107015;1283;60290;-80
2023/02/01 17:16:03;;;;;;;92.90;27.90;;;;;;;-0.02;100.00;100440.71;107070;1283;58061;-81
2023/02/01 17:18:32;;;;;;;99.90;28.50;;;;;;;-0.01;100.00;100440.56;107045;1283;74296;-81
2023/02/01 17:20:58;;;;;;;103.70;29.30;;;;;;;0.03;100.00;100436.98;106913;1283;73588;-81
2023/02/01 17:23:24;;;;;;;116.20;33.80;;;;;;;0.07;100.00;100438.09;107028;1283;61268;-83
2023/02/01 17:25:50;;;;;;;134.60;39.00;;;;;;;0.08;100.00;100437.27;107065;1283;58215;-81
2023/02/01 17:28:16;;;;;;;186.40;48.80;;;;;;;0.10;100.00;100437.25;106876;1283;58150;-81
2023/02/01 17:30:41;;;;;;;174.80;52.00;;;;;;;0.11;100.00;100440.84;107004;1283;58104;-81
2023/02/01 17:33:21;;;;;;;205.40;60.90;;;;;;;0.12;100.00;100438.80;107024;1283;58074;-81
2023/02/01 17:35:47;;;;;;;181.60;53.30;;;;;;;0.12;100.00;100441.45;106949;1283;61124;-81
2023/02/01 17:38:13;;;;;;;138.50;41.20;;;;;;;0.11;100.00;100441.23;106753;1283;58640;-81